sensor_id;sensor_type;location;lat;lon;timestamp;pressure;altitude;pressure_sealevel;temperature;humidity
69766;BME280;57039;48.014;21.384;2023-07-30T00:00:05;100122.31;;;20.09;100.00
69766;BME280;57039;48.014;21.384;2023-07-30T00:01:13;100124.28;;;20.07;100.00
69766;BME280;57039;48.014;21.384;2023-07-30T00:02:17;100128.78;;;20.06;100.00
69766;BME280;57039;48.014;21.384;2023-07-30T00:03:20;100118.97;;;20.07;100.00
69766;BME280;57039;48.014;21.384;2023-07-30T00:04:23;100132.44;;;20.05;100.00
69766;BME280;57039;48.014;21.384;2023-07-30T00:05:26;100130.94;;;20.03;100.00
69766;BME280;57039;48.014;21.384;2023-07-30T00:06:28;100135.13;;;20.05;100.00
69766;BME280;57039;48.014;21.384;2023-07-30T00:07:31;100101.16;;;19.81;100.00
69766;BME280;57039;48.014;21.384;2023-07-30T00:08:34;100143.72;;;19.99;100.00
69766;BME280;57039;48.014;21.384;2023-07-30T00:09:38;100141.50;;;19.95;100.00
69766;BME280;57039;48.014;21.384;2023-07-30T00:10:40;100145.69;;;19.97;100.00
69766;BME280;57039;48.014;21.384;2023-07-30T00:11:43;100151.19;;;19.96;100.00
69766;BME280;57039;48.014;21.384;2023-07-30T00:12:46;100145.87;;;19.96;100.00
69766;BME280;57039;48.014;21.384;2023-07-30T00:13:49;100151.03;;;19.97;100.00
69766;BME280;57039;48.014;21.384;2023-07-30T00:14:51;100147.22;;;20.00;100.00
69766;BME280;57039;48.014;21.384;2023-07-30T00:15:54;100129.34;;;19.92;100.00
69766;BME280;57039;48.014;21.384;2023-07-30T00:16:57;100146.59;;;20.06;100.00
69766;BME280;57039;48.014;21.384;2023-07-30T00:18:00;100139.00;;;20.11;100.00
69766;BME280;57039;48.014;21.384;2023-07-30T00:19:03;100131.97;;;20.10;100.00
69766;BME280;57039;48.014;21.384;2023-07-30T00:20:07;100131.84;;;20.12;100.00
69766;BME280;57039;48.014;21.384;2023-07-30T00:21:11;100128.47;;;20.10;100.00
69766;BME280;57039;48.014;21.384;2023-07-30T00:22:14;100132.13;;;20.09;100.00
69766;BME280;57039;48.014;21.384;2023-07-30T00:23:16;100122.63;;;20.06;100.00
69766;BME280;57039;48.014;21.384;2023-07-30T00:24:19;100132.28;;;20.07;100.00
69766;BME280;57039;48.014;21.384;2023-07-30T00:25:22;100132.28;;;20.07;100.00
69766;BME280;57039;48.014;21.384;2023-07-30T00:26:25;100126.81;;;20.09;100.00
69766;BME280;57039;48.014;21.384;2023-07-30T00:27:29;100123.16;;;20.10;100.00
69766;BME280;57039;48.014;21.384;2023-07-30T00:28:31;100113.94;;;20.04;100.00
69766;BME280;57039;48.014;21.384;2023-07-30T00:29:34;100121.28;;;20.02;100.00
69766;BME280;57039;48.014;21.384;2023-07-30T00:30:37;100120.28;;;20.03;100.00
69766;BME280;57039;48.014;21.384;2023-07-30T00:31:40;100123.62;;;20.05;100.00
69766;BME280;57039;48.014;21.384;2023-07-30T00:32:43;100124.59;;;20.04;100.00
69766;BME280;57039;48.014;21.384;2023-07-30T00:33:47;100128.56;;;20.00;100.00
69766;BME280;57039;48.014;21.384;2023-07-30T00:34:50;100124.87;;;19.93;100.00
69766;BME280;57039;48.014;21.384;2023-07-30T00:35:52;100101.59;;;19.77;100.00
69766;BME280;57039;48.014;21.384;2023-07-30T00:36:56;100120.81;;;19.89;100.00
69766;BME280;57039;48.014;21.384;2023-07-30T00:37:59;100118.34;;;19.87;100.00
69766;BME280;57039;48.014;21.384;2023-07-30T00:39:02;100115.97;;;19.84;100.00
69766;BME280;57039;48.014;21.384;2023-07-30T00:40:06;100116.81;;;19.84;100.00
69766;BME280;57039;48.014;21.384;2023-07-30T00:41:09;100120.47;;;19.83;100.00
69766;BME280;57039;48.014;21.384;2023-07-30T00:42:11;100111.94;;;19.80;100.00
69766;BME280;57039;48.014;21.384;2023-07-30T00:43:14;100117.25;;;19.80;100.00
69766;BME280;57039;48.014;21.384;2023-07-30T00:44:17;100096.94;;;19.61;100.00
69766;BME280;57039;48.014;21.384;2023-07-30T00:45:20;100121.66;;;19.71;100.00
69766;BME280;57039;48.014;21.384;2023-07-30T00:46:24;100116.34;;;19.71;100.00
69766;BME280;57039;48.014;21.384;2023-07-30T00:47:27;100121.97;;;19.68;100.00
69766;BME280;57039;48.014;21.384;2023-07-30T00:48:30;100125.34;;;19.70;100.00
69766;BME280;57039;48.014;21.384;2023-07-30T00:49:33;100120.69;;;19.72;100.00
69766;BME280;57039;48.014;21.384;2023-07-30T00:50:36;100120.69;;;19.72;100.00
69766;BME280;57039;48.014;21.384;2023-07-30T00:51:40;100123.06;;;19.75;100.00
69766;BME280;57039;48.014;21.384;2023-07-30T00:52:43;100118.03;;;19.72;100.00
69766;BME280;57039;48.014;21.384;2023-07-30T00:53:46;100122.88;;;19.77;100.00
69766;BME280;57039;48.014;21.384;2023-07-30T00:54:51;100116.91;;;19.75;100.00
69766;BME280;57039;48.014;21.384;2023-07-30T00:55:54;100119.41;;;19.76;100.00
69766;BME280;57039;48.014;21.384;2023-07-30T00:56:57;100115.75;;;19.77;100.00
69766;BME280;57039;48.014;21.384;2023-07-30T00:58:01;100111.59;;;19.75;100.00
69766;BME280;57039;48.014;21.384;2023-07-30T00:59:05;100118.75;;;19.74;100.00
69766;BME280;57039;48.014;21.384;2023-07-30T01:00:08;100114.25;;;19.75;100.00
69766;BME280;57039;48.014;21.384;2023-07-30T01:01:11;100110.88;;;19.73;100.00
69766;BME280;57039;48.014;21.384;2023-07-30T01:02:14;100108.22;;;19.73;100.00
69766;BME280;57039;48.014;21.384;2023-07-30T01:03:17;100077.41;;;19.52;100.00
69766;BME280;57039;48.014;21.384;2023-07-30T01:04:20;100107.91;;;19.76;100.00
69766;BME280;57039;48.014;21.384;2023-07-30T01:05:24;100107.22;;;19.74;100.00
69766;BME280;57039;48.014;21.384;2023-07-30T01:06:26;100094.22;;;19.71;100.00
69766;BME280;57039;48.014;21.384;2023-07-30T01:07:30;100097.06;;;19.69;100.00
69766;BME280;57039;48.014;21.384;2023-07-30T01:08:33;100087.81;;;19.64;100.00
69766;BME280;57039;48.014;21.384;2023-07-30T01:09:36;100100.25;;;19.73;100.00
69766;BME280;57039;48.014;21.384;2023-07-30T01:10:40;100095.22;;;19.70;100.00
69766;BME280;57039;48.014;21.384;2023-07-30T01:11:44;100097.87;;;19.70;100.00
69766;BME280;57039;48.014;21.384;2023-07-30T01:12:47;100100.53;;;19.70;100.00
69766;BME280;57039;48.014;21.384;2023-07-30T01:13:50;100100.84;;;19.67;100.00
69766;BME280;57039;48.014;21.384;2023-07-30T01:14:54;100096.62;;;19.64;100.00
69766;BME280;57039;48.014;21.384;2023-07-30T01:15:58;100107.59;;;19.61;100.00
69766;BME280;57039;48.014;21.384;2023-07-30T01:17:01;100092.75;;;19.58;100.00
69766;BME280;57039;48.014;21.384;2023-07-30T01:18:04;100102.56;;;19.58;100.00
69766;BME280;57039;48.014;21.384;2023-07-30T01:19:07;100102.06;;;19.54;100.00
69766;BME280;57039;48.014;21.384;2023-07-30T01:20:10;100064.03;;;19.26;100.00
69766;BME280;57039;48.014;21.384;2023-07-30T01:21:13;100102.78;;;19.47;100.00
69766;BME280;57039;48.014;21.384;2023-07-30T01:22:16;100114.97;;;19.49;100.00
69766;BME280;57039;48.014;21.384;2023-07-30T01:23:19;100113.59;;;19.45;100.00
69766;BME280;57039;48.014;21.384;2023-07-30T01:24:22;100112.78;;;19.45;100.00
69766;BME280;57039;48.014;21.384;2023-07-30T01:25:28;100110.94;;;19.45;100.00
69766;BME280;57039;48.014;21.384;2023-07-30T01:26:42;100117.94;;;19.46;100.00
69766;BME280;57039;48.014;21.384;2023-07-30T01:27:52;100116.94;;;19.47;100.00
69766;BME280;57039;48.014;21.384;2023-07-30T01:29:00;100109.50;;;19.51;100.00
69766;BME280;57039;48.014;21.384;2023-07-30T01:31:16;100109.56;;;19.59;100.00
69766;BME280;57039;48.014;21.384;2023-07-30T01:32:26;100105.09;;;19.59;100.00
69766;BME280;57039;48.014;21.384;2023-07-30T01:33:30;100100.09;;;19.56;100.00
69766;BME280;57039;48.014;21.384;2023-07-30T01:34:37;100104.22;;;19.59;100.00
69766;BME280;57039;48.014;21.384;2023-07-30T01:35:42;100102.28;;;19.61;100.00
69766;BME280;57039;48.014;21.384;2023-07-30T01:36:46;100108.16;;;19.65;100.00
69766;BME280;57039;48.014;21.384;2023-07-30T01:37:50;100108.16;;;19.65;100.00
69766;BME280;57039;48.014;21.384;2023-07-30T01:38:54;100103.09;;;19.61;100.00
69766;BME280;57039;48.014;21.384;2023-07-30T01:39:57;100105.34;;;19.66;100.00
69766;BME280;57039;48.014;21.384;2023-07-30T01:41:01;100109.25;;;19.62;100.00
69766;BME280;57039;48.014;21.384;2023-07-30T01:42:04;100100.44;;;19.61;100.00
69766;BME280;57039;48.014;21.384;2023-07-30T01:43:07;100103.09;;;19.61;100.00
69766;BME280;57039;48.014;21.384;2023-07-30T01:44:09;100100.91;;;19.57;100.00
69766;BME280;57039;48.014;21.384;2023-07-30T01:45:12;100107.38;;;19.54;100.00
69766;BME280;57039;48.014;21.384;2023-07-30T01:46:15;100103.19;;;19.52;100.00
69766;BME280;57039;48.014;21.384;2023-07-30T01:47:17;100114.13;;;19.49;100.00
69766;BME280;57039;48.014;21.384;2023-07-30T01:48:20;100102.97;;;19.45;100.00
69766;BME280;57039;48.014;21.384;2023-07-30T01:49:23;100100.31;;;19.45;100.00
69766;BME280;57039;48.014;21.384;2023-07-30T01:50:26;100098.78;;;19.43;100.00
69766;BME280;57039;48.014;21.384;2023-07-30T01:51:28;100100.44;;;19.44;100.00
69766;BME280;57039;48.014;21.384;2023-07-30T01:52:31;100103.94;;;19.44;100.00
69766;BME280;57039;48.014;21.384;2023-07-30T01:53:34;100098.09;;;19.41;100.00
69766;BME280;57039;48.014;21.384;2023-07-30T01:54:37;100104.94;;;19.43;100.00
69766;BME280;57039;48.014;21.384;2023-07-30T01:55:40;100098.59;;;19.44;100.00
69766;BME280;57039;48.014;21.384;2023-07-30T01:56:46;100100.12;;;19.47;100.00
69766;BME280;57039;48.014;21.384;2023-07-30T01:57:48;100093.16;;;19.46;100.00
69766;BME280;57039;48.014;21.384;2023-07-30T01:58:51;100089.66;;;19.45;100.00
69766;BME280;57039;48.014;21.384;2023-07-30T01:59:54;100094.69;;;19.48;100.00
69766;BME280;57039;48.014;21.384;2023-07-30T02:00:57;100090.88;;;19.51;100.00
69766;BME280;57039;48.014;21.384;2023-07-30T02:02:00;100089.03;;;19.51;100.00
69766;BME280;57039;48.014;21.384;2023-07-30T02:03:03;100086.59;;;19.58;100.00
69766;BME280;57039;48.014;21.384;2023-07-30T02:04:06;100090.09;;;19.58;100.00
69766;BME280;57039;48.014;21.384;2023-07-30T02:05:09;100082.94;;;19.59;100.00
69766;BME280;57039;48.014;21.384;2023-07-30T02:06:13;100088.25;;;19.59;100.00
69766;BME280;57039;48.014;21.384;2023-07-30T02:07:16;100089.13;;;19.59;100.00
69766;BME280;57039;48.014;21.384;2023-07-30T02:08:19;100086.31;;;19.61;100.00
69766;BME280;57039;48.014;21.384;2023-07-30T02:09:21;100079.31;;;19.60;100.00
69766;BME280;57039;48.014;21.384;2023-07-30T02:10:25;100076.78;;;19.58;100.00
69766;BME280;57039;48.014;21.384;2023-07-30T02:11:28;100075.75;;;19.51;100.00
69766;BME280;57039;48.014;21.384;2023-07-30T02:12:31;100083.56;;;19.53;100.00
69766;BME280;57039;48.014;21.384;2023-07-30T02:13:34;100082.34;;;19.47;100.00
69766;BME280;57039;48.014;21.384;2023-07-30T02:14:37;100084.47;;;19.44;100.00
69766;BME280;57039;48.014;21.384;2023-07-30T02:15:40;100085.78;;;19.39;100.00
69766;BME280;57039;48.014;21.384;2023-07-30T02:16:44;100085.38;;;19.34;100.00
69766;BME280;57039;48.014;21.384;2023-07-30T02:17:47;100086.69;;;19.30;100.00
69766;BME280;57039;48.014;21.384;2023-07-30T02:18:50;100081.50;;;19.29;100.00
69766;BME280;57039;48.014;21.384;2023-07-30T02:19:53;100085.69;;;19.31;100.00
69766;BME280;57039;48.014;21.384;2023-07-30T02:20:56;100087.34;;;19.32;100.00
69766;BME280;57039;48.014;21.384;2023-07-30T02:21:58;100085.00;;;19.29;100.00
69766;BME280;57039;48.014;21.384;2023-07-30T02:23:02;100088.53;;;19.30;100.00
69766;BME280;57039;48.014;21.384;2023-07-30T02:24:05;100092.97;;;19.29;100.00
69766;BME280;57039;48.014;21.384;2023-07-30T02:25:12;100099.28;;;19.28;100.00
69766;BME280;57039;48.014;21.384;2023-07-30T02:26:15;100101.13;;;19.28;100.00
69766;BME280;57039;48.014;21.384;2023-07-30T02:27:18;100094.66;;;19.30;100.00
69766;BME280;57039;48.014;21.384;2023-07-30T02:28:20;100100.28;;;19.27;100.00
69766;BME280;57039;48.014;21.384;2023-07-30T02:29:23;100099.59;;;19.25;100.00
69766;BME280;57039;48.014;21.384;2023-07-30T02:30:27;100097.94;;;19.24;100.00
69766;BME280;57039;48.014;21.384;2023-07-30T02:31:30;100098.91;;;19.23;100.00
69766;BME280;57039;48.014;21.384;2023-07-30T02:32:33;100097.25;;;19.22;100.00
69766;BME280;57039;48.014;21.384;2023-07-30T02:33:36;100096.25;;;19.23;100.00
69766;BME280;57039;48.014;21.384;2023-07-30T02:34:38;100098.91;;;19.23;100.00
69766;BME280;57039;48.014;21.384;2023-07-30T02:35:43;100094.81;;;19.29;100.00
69766;BME280;57039;48.014;21.384;2023-07-30T02:36:46;100094.91;;;19.37;100.00
69766;BME280;57039;48.014;21.384;2023-07-30T02:37:49;100088.44;;;19.39;100.00
69766;BME280;57039;48.014;21.384;2023-07-30T02:38:51;100093.06;;;19.37;100.00
69766;BME280;57039;48.014;21.384;2023-07-30T02:39:54;100088.53;;;19.30;100.00
69766;BME280;57039;48.014;21.384;2023-07-30T02:40:57;100093.59;;;19.23;100.00
69766;BME280;57039;48.014;21.384;2023-07-30T02:42:00;100089.97;;;19.24;100.00
69766;BME280;57039;48.014;21.384;2023-07-30T02:43:03;100088.25;;;19.23;100.00
69766;BME280;57039;48.014;21.384;2023-07-30T02:44:05;100090.91;;;19.23;100.00
69766;BME280;57039;48.014;21.384;2023-07-30T02:45:08;100091.91;;;19.22;100.00
69766;BME280;57039;48.014;21.384;2023-07-30T02:46:11;100104.22;;;19.23;100.00
69766;BME280;57039;48.014;21.384;2023-07-30T02:47:14;100101.03;;;19.20;100.00
69766;BME280;57039;48.014;21.384;2023-07-30T02:48:17;100101.03;;;19.20;100.00
69766;BME280;57039;48.014;21.384;2023-07-30T02:49:19;100100.91;;;19.21;100.00
69766;BME280;57039;48.014;21.384;2023-07-30T02:50:22;100107.19;;;19.20;100.00
69766;BME280;57039;48.014;21.384;2023-07-30T02:51:25;100105.53;;;19.19;100.00
69766;BME280;57039;48.014;21.384;2023-07-30T02:52:28;100111.00;;;19.18;100.00
69766;BME280;57039;48.014;21.384;2023-07-30T02:53:31;100106.81;;;19.15;100.00
69766;BME280;57039;48.014;21.384;2023-07-30T02:54:33;100106.13;;;19.13;100.00
69766;BME280;57039;48.014;21.384;2023-07-30T02:55:36;100106.25;;;19.11;100.00
69766;BME280;57039;48.014;21.384;2023-07-30T02:56:39;100106.72;;;19.07;100.00
69766;BME280;57039;48.014;21.384;2023-07-30T02:57:42;100110.50;;;19.04;100.00
69766;BME280;57039;48.014;21.384;2023-07-30T02:58:44;100108.84;;;19.03;100.00
69766;BME280;57039;48.014;21.384;2023-07-30T02:59:47;100109.69;;;19.04;100.00
69766;BME280;57039;48.014;21.384;2023-07-30T03:00:50;100105.88;;;19.06;100.00
69766;BME280;57039;48.014;21.384;2023-07-30T03:01:53;100104.06;;;19.07;100.00
69766;BME280;57039;48.014;21.384;2023-07-30T03:02:56;100101.69;;;19.04;100.00
69766;BME280;57039;48.014;21.384;2023-07-30T03:03:59;100107.72;;;19.06;100.00
69766;BME280;57039;48.014;21.384;2023-07-30T03:05:02;100102.41;;;19.06;100.00
69766;BME280;57039;48.014;21.384;2023-07-30T03:06:06;100108.00;;;19.03;100.00
69766;BME280;57039;48.014;21.384;2023-07-30T03:07:09;100106.19;;;19.03;100.00
69766;BME280;57039;48.014;21.384;2023-07-30T03:08:12;100062.81;;;18.75;100.00
69766;BME280;57039;48.014;21.384;2023-07-30T03:09:15;100105.66;;;19.00;100.00
69766;BME280;57039;48.014;21.384;2023-07-30T03:10:18;100109.28;;;18.99;100.00
69766;BME280;57039;48.014;21.384;2023-07-30T03:11:22;100109.28;;;18.99;100.00
69766;BME280;57039;48.014;21.384;2023-07-30T03:12:24;100102.19;;;18.89;100.00
69766;BME280;57039;48.014;21.384;2023-07-30T03:13:27;100112.81;;;18.89;100.00
69766;BME280;57039;48.014;21.384;2023-07-30T03:14:30;100110.03;;;18.91;100.00
69766;BME280;57039;48.014;21.384;2023-07-30T03:15:33;100108.34;;;18.90;100.00
69766;BME280;57039;48.014;21.384;2023-07-30T03:16:36;100111.16;;;18.88;100.00
69766;BME280;57039;48.014;21.384;2023-07-30T03:17:38;100105.84;;;18.88;100.00
69766;BME280;57039;48.014;21.384;2023-07-30T03:18:42;100108.50;;;18.88;100.00
69766;BME280;57039;48.014;21.384;2023-07-30T03:19:46;100104.16;;;18.87;100.00
69766;BME280;57039;48.014;21.384;2023-07-30T03:20:49;100102.19;;;18.89;100.00
69766;BME280;57039;48.014;21.384;2023-07-30T03:21:52;100102.06;;;18.91;100.00
69766;BME280;57039;48.014;21.384;2023-07-30T03:22:54;100103.03;;;18.90;100.00
69766;BME280;57039;48.014;21.384;2023-07-30T03:23:57;100100.38;;;18.90;100.00
69766;BME280;57039;48.014;21.384;2023-07-30T03:25:00;100100.22;;;18.91;100.00
69766;BME280;57039;48.014;21.384;2023-07-30T03:26:03;100098.94;;;18.96;100.00
69766;BME280;57039;48.014;21.384;2023-07-30T03:27:05;100105.25;;;18.95;100.00
69766;BME280;57039;48.014;21.384;2023-07-30T03:28:08;100102.28;;;18.98;100.00
69766;BME280;57039;48.014;21.384;2023-07-30T03:29:11;100105.19;;;19.04;100.00
69766;BME280;57039;48.014;21.384;2023-07-30T03:30:14;100111.03;;;19.08;100.00
69766;BME280;57039;48.014;21.384;2023-07-30T03:31:17;100107.25;;;19.10;100.00
69766;BME280;57039;48.014;21.384;2023-07-30T03:32:20;100106.81;;;19.15;100.00
69766;BME280;57039;48.014;21.384;2023-07-30T03:33:23;100095.47;;;19.13;100.00
69766;BME280;57039;48.014;21.384;2023-07-30T03:34:26;100105.53;;;19.19;100.00
69766;BME280;57039;48.014;21.384;2023-07-30T03:35:29;100108.56;;;19.24;100.00
69766;BME280;57039;48.014;21.384;2023-07-30T03:36:32;100099.19;;;19.20;100.00
69766;BME280;57039;48.014;21.384;2023-07-30T03:37:34;100102.84;;;19.19;100.00
69766;BME280;57039;48.014;21.384;2023-07-30T03:38:40;100100.09;;;19.11;100.00
69766;BME280;57039;48.014;21.384;2023-07-30T03:39:43;100108.09;;;19.11;100.00
69766;BME280;57039;48.014;21.384;2023-07-30T03:40:46;100110.44;;;19.14;100.00
69766;BME280;57039;48.014;21.384;2023-07-30T03:41:49;100104.87;;;19.07;100.00
69766;BME280;57039;48.014;21.384;2023-07-30T03:42:51;100057.19;;;18.78;100.00
69766;BME280;57039;48.014;21.384;2023-07-30T03:43:54;100109.22;;;19.08;100.00
69766;BME280;57039;48.014;21.384;2023-07-30T03:44:57;100112.88;;;19.07;100.00
69766;BME280;57039;48.014;21.384;2023-07-30T03:46:00;100114.78;;;19.15;100.00
69766;BME280;57039;48.014;21.384;2023-07-30T03:47:03;100106.81;;;19.15;100.00
69766;BME280;57039;48.014;21.384;2023-07-30T03:48:06;100106.50;;;19.18;100.00
69766;BME280;57039;48.014;21.384;2023-07-30T03:49:08;100109.31;;;19.16;100.00
69766;BME280;57039;48.014;21.384;2023-07-30T03:50:11;100109.31;;;19.16;100.00
69766;BME280;57039;48.014;21.384;2023-07-30T03:51:14;100109.59;;;19.13;100.00
69766;BME280;57039;48.014;21.384;2023-07-30T03:52:17;100112.44;;;19.12;100.00
69766;BME280;57039;48.014;21.384;2023-07-30T03:53:20;100117.75;;;19.12;100.00
69766;BME280;57039;48.014;21.384;2023-07-30T03:54:22;100110.44;;;19.14;100.00
69766;BME280;57039;48.014;21.384;2023-07-30T03:55:28;100116.03;;;19.21;100.00
69766;BME280;57039;48.014;21.384;2023-07-30T03:56:31;100109.00;;;19.20;100.00
69766;BME280;57039;48.014;21.384;2023-07-30T03:57:33;100114.19;;;19.21;100.00
69766;BME280;57039;48.014;21.384;2023-07-30T03:58:37;100110.91;;;19.09;100.00
69766;BME280;57039;48.014;21.384;2023-07-30T03:59:40;100119.13;;;19.16;100.00
69766;BME280;57039;48.014;21.384;2023-07-30T04:00:43;100115.84;;;19.22;100.00
69766;BME280;57039;48.014;21.384;2023-07-30T04:01:46;100122.25;;;19.29;100.00
69766;BME280;57039;48.014;21.384;2023-07-30T04:02:49;100124.59;;;19.32;100.00
69766;BME280;57039;48.014;21.384;2023-07-30T04:03:52;100117.91;;;19.28;100.00
69766;BME280;57039;48.014;21.384;2023-07-30T04:04:55;100116.47;;;19.34;100.00
69766;BME280;57039;48.014;21.384;2023-07-30T04:05:58;100126.69;;;19.38;100.00
69766;BME280;57039;48.014;21.384;2023-07-30T04:07:01;100119.38;;;19.41;100.00
69766;BME280;57039;48.014;21.384;2023-07-30T04:08:04;100124.16;;;19.37;100.00
69766;BME280;57039;48.014;21.384;2023-07-30T04:09:06;100124.75;;;19.31;100.00
69766;BME280;57039;48.014;21.384;2023-07-30T04:10:10;100132.00;;;19.38;100.00
69766;BME280;57039;48.014;21.384;2023-07-30T04:11:13;100127.88;;;19.44;100.00
69766;BME280;57039;48.014;21.384;2023-07-30T04:12:16;100127.88;;;19.44;100.00
69766;BME280;57039;48.014;21.384;2023-07-30T04:13:19;100132.37;;;19.44;100.00
69766;BME280;57039;48.014;21.384;2023-07-30T04:14:21;100128.97;;;19.51;100.00
69766;BME280;57039;48.014;21.384;2023-07-30T04:15:24;100123.25;;;19.64;100.00
69766;BME280;57039;48.014;21.384;2023-07-30T04:16:27;100126.13;;;19.53;100.00
69766;BME280;57039;48.014;21.384;2023-07-30T04:17:30;100125.03;;;19.73;100.00
69766;BME280;57039;48.014;21.384;2023-07-30T04:18:33;100122.13;;;19.84;100.00
69766;BME280;57039;48.014;21.384;2023-07-30T04:19:36;100093.78;;;19.75;100.00
69766;BME280;57039;48.014;21.384;2023-07-30T04:20:39;100125.47;;;20.04;100.00
69766;BME280;57039;48.014;21.384;2023-07-30T04:21:43;100086.59;;;19.94;100.00
69766;BME280;57039;48.014;21.384;2023-07-30T04:22:46;100123.06;;;20.19;100.00
69766;BME280;57039;48.014;21.384;2023-07-30T04:23:49;100116.50;;;20.32;100.00
69766;BME280;57039;48.014;21.384;2023-07-30T04:24:52;100122.34;;;20.35;100.00
69766;BME280;57039;48.014;21.384;2023-07-30T04:25:55;100113.34;;;20.36;100.00
69766;BME280;57039;48.014;21.384;2023-07-30T04:26:57;100122.06;;;20.46;100.00
69766;BME280;57039;48.014;21.384;2023-07-30T04:28:01;100121.97;;;20.56;100.00
69766;BME280;57039;48.014;21.384;2023-07-30T04:29:03;100121.81;;;20.58;100.00
69766;BME280;57039;48.014;21.384;2023-07-30T04:30:07;100122.69;;;20.66;100.00
69766;BME280;57039;48.014;21.384;2023-07-30T04:31:10;100116.06;;;20.70;100.00
69766;BME280;57039;48.014;21.384;2023-07-30T04:32:14;100125.09;;;20.78;100.00
69766;BME280;57039;48.014;21.384;2023-07-30T04:33:17;100116.06;;;20.70;100.00
69766;BME280;57039;48.014;21.384;2023-07-30T04:34:20;100116.91;;;20.71;100.00
69766;BME280;57039;48.014;21.384;2023-07-30T04:35:22;100121.94;;;20.82;100.00
69766;BME280;57039;48.014;21.384;2023-07-30T04:36:25;100122.78;;;20.91;100.00
69766;BME280;57039;48.014;21.384;2023-07-30T04:37:29;100122.50;;;21.02;100.00
69766;BME280;57039;48.014;21.384;2023-07-30T04:38:32;100125.34;;;21.09;100.00
69766;BME280;57039;48.014;21.384;2023-07-30T04:39:35;100126.03;;;21.11;100.00
69766;BME280;57039;48.014;21.384;2023-07-30T04:40:39;100121.87;;;21.16;100.00
69766;BME280;57039;48.014;21.384;2023-07-30T04:41:41;100131.59;;;21.26;100.00
69766;BME280;57039;48.014;21.384;2023-07-30T04:42:45;100123.09;;;21.30;100.00
69766;BME280;57039;48.014;21.384;2023-07-30T04:43:48;100128.75;;;21.27;100.00
69766;BME280;57039;48.014;21.384;2023-07-30T04:44:53;100129.75;;;21.26;100.00
69766;BME280;57039;48.014;21.384;2023-07-30T04:45:55;100130.81;;;21.41;100.00
69766;BME280;57039;48.014;21.384;2023-07-30T04:46:58;100125.44;;;21.33;100.00
69766;BME280;57039;48.014;21.384;2023-07-30T04:48:01;100124.66;;;21.49;100.00
69766;BME280;57039;48.014;21.384;2023-07-30T04:49:04;100121.00;;;21.58;100.00
69766;BME280;57039;48.014;21.384;2023-07-30T04:50:07;100126.34;;;21.67;100.00
69766;BME280;57039;48.014;21.384;2023-07-30T04:51:10;100127.53;;;21.72;100.00
69766;BME280;57039;48.014;21.384;2023-07-30T04:52:13;100132.69;;;21.82;100.00
69766;BME280;57039;48.014;21.384;2023-07-30T04:53:15;100127.03;;;21.85;100.00
69766;BME280;57039;48.014;21.384;2023-07-30T04:54:20;100127.03;;;21.85;100.00
69766;BME280;57039;48.014;21.384;2023-07-30T04:55:22;100135.00;;;22.01;100.00
69766;BME280;57039;48.014;21.384;2023-07-30T04:56:25;100136.38;;;22.05;100.00
69766;BME280;57039;48.014;21.384;2023-07-30T04:57:29;100137.53;;;22.11;100.00
69766;BME280;57039;48.014;21.384;2023-07-30T04:58:32;100139.56;;;22.17;100.00
69766;BME280;57039;48.014;21.384;2023-07-30T04:59:35;100142.53;;;22.30;100.00
69766;BME280;57039;48.014;21.384;2023-07-30T05:00:37;100140.19;;;22.36;100.00
69766;BME280;57039;48.014;21.384;2023-07-30T05:01:40;100127.12;;;22.49;100.00
69766;BME280;57039;48.014;21.384;2023-07-30T05:02:43;100138.63;;;22.58;100.00
69766;BME280;57039;48.014;21.384;2023-07-30T05:03:46;100147.19;;;22.53;100.00
69766;BME280;57039;48.014;21.384;2023-07-30T05:04:50;100135.00;;;22.50;100.00
69766;BME280;57039;48.014;21.384;2023-07-30T05:05:55;100143.81;;;22.59;100.00
69766;BME280;57039;48.014;21.384;2023-07-30T05:06:58;100149.94;;;22.76;100.00
69766;BME280;57039;48.014;21.384;2023-07-30T05:08:01;100149.75;;;22.86;100.00
69766;BME280;57039;48.014;21.384;2023-07-30T05:09:04;100156.06;;;22.93;100.00
69766;BME280;57039;48.014;21.384;2023-07-30T05:10:07;100160.59;;;23.00;100.00
69766;BME280;57039;48.014;21.384;2023-07-30T05:11:13;100161.59;;;22.99;100.00
69766;BME280;57039;48.014;21.384;2023-07-30T05:12:16;100162.59;;;23.07;100.00
69766;BME280;57039;48.014;21.384;2023-07-30T05:13:21;100156.56;;;23.05;100.00
69766;BME280;57039;48.014;21.384;2023-07-30T05:14:24;100162.87;;;23.12;100.00
69766;BME280;57039;48.014;21.384;2023-07-30T05:15:27;100159.25;;;23.05;100.00
69766;BME280;57039;48.014;21.384;2023-07-30T05:16:29;100171.53;;;23.22;100.00
69766;BME280;57039;48.014;21.384;2023-07-30T05:17:32;100171.44;;;23.38;100.00
69766;BME280;57039;48.014;21.384;2023-07-30T05:18:35;100170.25;;;23.41;100.00
69766;BME280;57039;48.014;21.384;2023-07-30T05:19:38;100173.88;;;23.48;100.00
69766;BME280;57039;48.014;21.384;2023-07-30T05:20:41;100164.94;;;23.33;100.00
69766;BME280;57039;48.014;21.384;2023-07-30T05:21:44;100159.81;;;23.23;100.00
69766;BME280;57039;48.014;21.384;2023-07-30T05:22:46;100174.22;;;23.22;100.00